sensor_id;sensor_type;location;lat;lon;timestamp;temperature;humidity
49413;DHT22;35493;50.276;9.372;2023-02-18T00:01:15;10.60;93.60
49413;DHT22;35493;50.276;9.372;2023-02-18T00:03:42;10.60;93.70
49413;DHT22;35493;50.276;9.372;2023-02-18T00:06:11;10.50;93.50
49413;DHT22;35493;50.276;9.372;2023-02-18T00:08:38;10.60;93.60
49413;DHT22;35493;50.276;9.372;2023-02-18T00:11:05;10.50;93.60
49413;DHT22;35493;50.276;9.372;2023-02-18T00:13:32;10.50;93.60
49413;DHT22;35493;50.276;9.372;2023-02-18T00:16:00;10.50;93.60
49413;DHT22;35493;50.276;9.372;2023-02-18T00:18:36;10.50;93.60
49413;DHT22;35493;50.276;9.372;2023-02-18T00:21:04;10.50;93.60
49413;DHT22;35493;50.276;9.372;2023-02-18T00:23:33;10.50;93.40
49413;DHT22;35493;50.276;9.372;2023-02-18T00:26:02;10.50;93.50
49413;DHT22;35493;50.276;9.372;2023-02-18T00:28:29;10.50;93.50
49413;DHT22;35493;50.276;9.372;2023-02-18T00:30:56;10.50;93.40
49413;DHT22;35493;50.276;9.372;2023-02-18T00:33:23;10.50;93.40
49413;DHT22;35493;50.276;9.372;2023-02-18T00:35:52;10.50;93.40
49413;DHT22;35493;50.276;9.372;2023-02-18T00:38:26;10.50;93.40
49413;DHT22;35493;50.276;9.372;2023-02-18T00:40:53;10.50;93.40
49413;DHT22;35493;50.276;9.372;2023-02-18T00:43:20;10.50;93.40
49413;DHT22;35493;50.276;9.372;2023-02-18T00:45:47;10.50;93.30
49413;DHT22;35493;50.276;9.372;2023-02-18T00:48:14;10.50;93.40
49413;DHT22;35493;50.276;9.372;2023-02-18T00:50:41;10.50;93.30
49413;DHT22;35493;50.276;9.372;2023-02-18T00:53:09;10.50;93.40
49413;DHT22;35493;50.276;9.372;2023-02-18T00:55:38;10.50;93.20
49413;DHT22;35493;50.276;9.372;2023-02-18T00:58:05;10.50;93.20
49413;DHT22;35493;50.276;9.372;2023-02-18T01:00:32;10.50;93.20
49413;DHT22;35493;50.276;9.372;2023-02-18T01:02:59;10.50;93.30
49413;DHT22;35493;50.276;9.372;2023-02-18T01:05:26;10.50;93.20
49413;DHT22;35493;50.276;9.372;2023-02-18T01:07:53;10.50;93.20
49413;DHT22;35493;50.276;9.372;2023-02-18T01:10:22;10.50;93.20
49413;DHT22;35493;50.276;9.372;2023-02-18T01:12:49;10.40;93.20
49413;DHT22;35493;50.276;9.372;2023-02-18T01:15:17;10.50;93.20
49413;DHT22;35493;50.276;9.372;2023-02-18T01:17:44;10.50;93.20
49413;DHT22;35493;50.276;9.372;2023-02-18T01:20:12;10.40;93.30
49413;DHT22;35493;50.276;9.372;2023-02-18T01:22:39;10.50;93.40
49413;DHT22;35493;50.276;9.372;2023-02-18T01:25:07;10.40;93.20
49413;DHT22;35493;50.276;9.372;2023-02-18T01:27:35;10.40;93.30
49413;DHT22;35493;50.276;9.372;2023-02-18T01:30:03;10.40;93.20
49413;DHT22;35493;50.276;9.372;2023-02-18T01:32:31;10.40;93.30
49413;DHT22;35493;50.276;9.372;2023-02-18T01:34:59;10.40;93.30
49413;DHT22;35493;50.276;9.372;2023-02-18T01:37:28;10.40;93.30
49413;DHT22;35493;50.276;9.372;2023-02-18T01:39:55;10.50;93.40
49413;DHT22;35493;50.276;9.372;2023-02-18T01:42:23;10.40;93.40
49413;DHT22;35493;50.276;9.372;2023-02-18T01:44:52;10.40;93.30
49413;DHT22;35493;50.276;9.372;2023-02-18T01:47:19;10.40;93.30
49413;DHT22;35493;50.276;9.372;2023-02-18T01:49:50;10.40;93.40
49413;DHT22;35493;50.276;9.372;2023-02-18T01:52:21;10.40;93.40
49413;DHT22;35493;50.276;9.372;2023-02-18T01:54:52;10.40;93.40
49413;DHT22;35493;50.276;9.372;2023-02-18T01:57:24;10.50;93.30
49413;DHT22;35493;50.276;9.372;2023-02-18T01:59:57;10.40;93.30
49413;DHT22;35493;50.276;9.372;2023-02-18T02:02:31;10.40;93.40
49413;DHT22;35493;50.276;9.372;2023-02-18T02:04:59;10.50;93.40
49413;DHT22;35493;50.276;9.372;2023-02-18T02:07:27;10.50;93.30
49413;DHT22;35493;50.276;9.372;2023-02-18T02:09:56;10.50;93.30
49413;DHT22;35493;50.276;9.372;2023-02-18T02:12:34;10.40;93.30
49413;DHT22;35493;50.276;9.372;2023-02-18T02:15:26;10.50;93.20
49413;DHT22;35493;50.276;9.372;2023-02-18T02:18:25;10.40;93.20
49413;DHT22;35493;50.276;9.372;2023-02-18T02:24:22;10.40;93.00
49413;DHT22;35493;50.276;9.372;2023-02-18T02:27:14;10.40;92.90
49413;DHT22;35493;50.276;9.372;2023-02-18T02:33:01;10.40;93.00
49413;DHT22;35493;50.276;9.372;2023-02-18T02:35:35;10.40;93.00
49413;DHT22;35493;50.276;9.372;2023-02-18T02:38:08;10.40;92.80
49413;DHT22;35493;50.276;9.372;2023-02-18T02:40:42;10.40;92.90
49413;DHT22;35493;50.276;9.372;2023-02-18T02:43:17;10.40;92.90
49413;DHT22;35493;50.276;9.372;2023-02-18T02:45:50;10.40;92.90
49413;DHT22;35493;50.276;9.372;2023-02-18T02:48:24;10.40;92.90
49413;DHT22;35493;50.276;9.372;2023-02-18T02:51:02;10.40;92.90
49413;DHT22;35493;50.276;9.372;2023-02-18T02:53:33;10.40;92.80
49413;DHT22;35493;50.276;9.372;2023-02-18T02:56:00;10.40;92.90
49413;DHT22;35493;50.276;9.372;2023-02-18T02:58:28;10.40;92.80
49413;DHT22;35493;50.276;9.372;2023-02-18T03:01:13;10.40;92.80
49413;DHT22;35493;50.276;9.372;2023-02-18T03:04:08;10.40;92.70
49413;DHT22;35493;50.276;9.372;2023-02-18T03:06:57;10.40;92.70
49413;DHT22;35493;50.276;9.372;2023-02-18T03:09:33;10.40;92.50
49413;DHT22;35493;50.276;9.372;2023-02-18T03:12:07;10.40;92.40
49413;DHT22;35493;50.276;9.372;2023-02-18T03:14:45;10.40;92.40
49413;DHT22;35493;50.276;9.372;2023-02-18T03:17:19;10.40;92.30
49413;DHT22;35493;50.276;9.372;2023-02-18T03:19:54;10.40;92.20
49413;DHT22;35493;50.276;9.372;2023-02-18T03:22:27;10.40;92.20
49413;DHT22;35493;50.276;9.372;2023-02-18T03:24:57;10.40;92.10
49413;DHT22;35493;50.276;9.372;2023-02-18T03:27:27;10.40;92.10
49413;DHT22;35493;50.276;9.372;2023-02-18T03:29:59;10.40;92.20
49413;DHT22;35493;50.276;9.372;2023-02-18T03:32:28;10.40;92.20
49413;DHT22;35493;50.276;9.372;2023-02-18T03:35:01;10.40;92.30
49413;DHT22;35493;50.276;9.372;2023-02-18T03:37:31;10.40;92.50
49413;DHT22;35493;50.276;9.372;2023-02-18T03:40:01;10.30;92.60
49413;DHT22;35493;50.276;9.372;2023-02-18T03:42:28;10.40;92.70
49413;DHT22;35493;50.276;9.372;2023-02-18T03:44:55;10.40;92.60
49413;DHT22;35493;50.276;9.372;2023-02-18T03:47:24;10.40;92.80
49413;DHT22;35493;50.276;9.372;2023-02-18T03:49:51;10.30;92.70
49413;DHT22;35493;50.276;9.372;2023-02-18T03:52:17;10.30;92.70
49413;DHT22;35493;50.276;9.372;2023-02-18T03:54:46;10.30;92.70
49413;DHT22;35493;50.276;9.372;2023-02-18T03:57:13;10.30;92.70
49413;DHT22;35493;50.276;9.372;2023-02-18T03:59:39;10.30;92.70
49413;DHT22;35493;50.276;9.372;2023-02-18T04:02:06;10.30;92.50
49413;DHT22;35493;50.276;9.372;2023-02-18T04:04:33;10.30;92.60
49413;DHT22;35493;50.276;9.372;2023-02-18T04:07:00;10.30;92.60
49413;DHT22;35493;50.276;9.372;2023-02-18T04:09:27;10.30;92.50
49413;DHT22;35493;50.276;9.372;2023-02-18T04:11:55;10.40;92.50
49413;DHT22;35493;50.276;9.372;2023-02-18T04:14:22;10.30;92.50
49413;DHT22;35493;50.276;9.372;2023-02-18T04:16:49;10.30;92.50
49413;DHT22;35493;50.276;9.372;2023-02-18T04:19:16;10.30;92.40
49413;DHT22;35493;50.276;9.372;2023-02-18T04:21:42;10.30;92.40
49413;DHT22;35493;50.276;9.372;2023-02-18T04:24:09;10.30;92.30
49413;DHT22;35493;50.276;9.372;2023-02-18T04:26:36;10.30;92.30
49413;DHT22;35493;50.276;9.372;2023-02-18T04:29:04;10.30;92.20
49413;DHT22;35493;50.276;9.372;2023-02-18T04:31:31;10.30;92.10
49413;DHT22;35493;50.276;9.372;2023-02-18T04:33:58;10.30;92.00
49413;DHT22;35493;50.276;9.372;2023-02-18T04:36:25;10.30;91.90
49413;DHT22;35493;50.276;9.372;2023-02-18T04:38:54;10.30;91.90
49413;DHT22;35493;50.276;9.372;2023-02-18T04:41:21;10.30;91.90
49413;DHT22;35493;50.276;9.372;2023-02-18T04:43:48;10.30;91.90
49413;DHT22;35493;50.276;9.372;2023-02-18T04:46:16;10.30;91.80
49413;DHT22;35493;50.276;9.372;2023-02-18T04:48:43;10.30;91.80
49413;DHT22;35493;50.276;9.372;2023-02-18T04:51:10;10.30;91.70
49413;DHT22;35493;50.276;9.372;2023-02-18T04:53:37;10.30;91.70
49413;DHT22;35493;50.276;9.372;2023-02-18T04:56:04;10.30;91.70
49413;DHT22;35493;50.276;9.372;2023-02-18T04:58:31;10.30;91.70
49413;DHT22;35493;50.276;9.372;2023-02-18T05:00:58;10.30;91.70
49413;DHT22;35493;50.276;9.372;2023-02-18T05:03:27;10.30;91.70
49413;DHT22;35493;50.276;9.372;2023-02-18T05:05:55;10.30;91.70
49413;DHT22;35493;50.276;9.372;2023-02-18T05:08:22;10.30;91.70
49413;DHT22;35493;50.276;9.372;2023-02-18T05:10:49;10.20;91.70
49413;DHT22;35493;50.276;9.372;2023-02-18T05:13:16;10.30;91.70
49413;DHT22;35493;50.276;9.372;2023-02-18T05:15:43;10.30;91.80
49413;DHT22;35493;50.276;9.372;2023-02-18T05:18:10;10.30;91.80
49413;DHT22;35493;50.276;9.372;2023-02-18T05:20:38;10.30;92.10
49413;DHT22;35493;50.276;9.372;2023-02-18T05:23:05;10.20;92.20
49413;DHT22;35493;50.276;9.372;2023-02-18T05:25:32;10.20;92.30
49413;DHT22;35493;50.276;9.372;2023-02-18T05:27:59;10.20;92.60
49413;DHT22;35493;50.276;9.372;2023-02-18T05:30:26;10.20;92.60
49413;DHT22;35493;50.276;9.372;2023-02-18T05:32:53;10.20;92.80
49413;DHT22;35493;50.276;9.372;2023-02-18T05:35:20;10.20;92.80
49413;DHT22;35493;50.276;9.372;2023-02-18T05:37:48;10.10;92.70
49413;DHT22;35493;50.276;9.372;2023-02-18T05:40:15;10.20;92.70
49413;DHT22;35493;50.276;9.372;2023-02-18T05:42:42;10.10;92.90
49413;DHT22;35493;50.276;9.372;2023-02-18T05:45:09;10.20;92.90
49413;DHT22;35493;50.276;9.372;2023-02-18T05:47:36;10.10;93.00
49413;DHT22;35493;50.276;9.372;2023-02-18T05:50:03;10.10;92.90
49413;DHT22;35493;50.276;9.372;2023-02-18T05:52:31;10.10;92.90
49413;DHT22;35493;50.276;9.372;2023-02-18T05:54:59;10.10;92.90
49413;DHT22;35493;50.276;9.372;2023-02-18T05:57:26;10.10;92.90
49413;DHT22;35493;50.276;9.372;2023-02-18T05:59:53;10.10;92.90
49413;DHT22;35493;50.276;9.372;2023-02-18T06:02:20;10.10;92.80
49413;DHT22;35493;50.276;9.372;2023-02-18T06:04:47;10.10;92.80
49413;DHT22;35493;50.276;9.372;2023-02-18T06:07:14;10.10;92.90
49413;DHT22;35493;50.276;9.372;2023-02-18T06:09:42;10.10;92.80
49413;DHT22;35493;50.276;9.372;2023-02-18T06:12:11;10.10;92.90
49413;DHT22;35493;50.276;9.372;2023-02-18T06:14:39;10.10;93.10
49413;DHT22;35493;50.276;9.372;2023-02-18T06:17:06;10.10;93.00
49413;DHT22;35493;50.276;9.372;2023-02-18T06:19:33;10.20;93.20
49413;DHT22;35493;50.276;9.372;2023-02-18T06:22:00;10.10;93.20
49413;DHT22;35493;50.276;9.372;2023-02-18T06:24:27;10.20;93.10
49413;DHT22;35493;50.276;9.372;2023-02-18T06:26:54;10.10;93.00
49413;DHT22;35493;50.276;9.372;2023-02-18T06:29:22;10.10;93.20
49413;DHT22;35493;50.276;9.372;2023-02-18T06:31:49;10.20;93.10
49413;DHT22;35493;50.276;9.372;2023-02-18T06:34:16;10.20;93.20
49413;DHT22;35493;50.276;9.372;2023-02-18T06:36:43;10.20;93.10
49413;DHT22;35493;50.276;9.372;2023-02-18T06:39:10;10.20;93.00
49413;DHT22;35493;50.276;9.372;2023-02-18T06:41:37;10.20;93.00
49413;DHT22;35493;50.276;9.372;2023-02-18T06:44:05;10.20;93.20
49413;DHT22;35493;50.276;9.372;2023-02-18T06:46:33;10.20;93.30
49413;DHT22;35493;50.276;9.372;2023-02-18T06:49:00;10.20;93.30
49413;DHT22;35493;50.276;9.372;2023-02-18T06:51:27;10.20;93.20
49413;DHT22;35493;50.276;9.372;2023-02-18T06:53:54;10.10;93.40
49413;DHT22;35493;50.276;9.372;2023-02-18T06:56:21;10.20;93.30
49413;DHT22;35493;50.276;9.372;2023-02-18T06:58:48;10.10;93.30
49413;DHT22;35493;50.276;9.372;2023-02-18T07:01:17;10.10;93.30
49413;DHT22;35493;50.276;9.372;2023-02-18T07:03:45;10.10;93.20
49413;DHT22;35493;50.276;9.372;2023-02-18T07:06:12;10.20;93.10
49413;DHT22;35493;50.276;9.372;2023-02-18T07:08:39;10.20;92.80
49413;DHT22;35493;50.276;9.372;2023-02-18T07:11:06;10.20;92.80
49413;DHT22;35493;50.276;9.372;2023-02-18T07:13:39;10.20;92.70
49413;DHT22;35493;50.276;9.372;2023-02-18T07:16:06;10.20;92.60
49413;DHT22;35493;50.276;9.372;2023-02-18T07:18:33;10.20;92.50
49413;DHT22;35493;50.276;9.372;2023-02-18T07:21:01;10.20;92.40
49413;DHT22;35493;50.276;9.372;2023-02-18T07:23:28;10.20;92.20
49413;DHT22;35493;50.276;9.372;2023-02-18T07:26:03;10.20;92.20
49413;DHT22;35493;50.276;9.372;2023-02-18T07:28:30;10.20;92.10
49413;DHT22;35493;50.276;9.372;2023-02-18T07:30:57;10.20;92.00
49413;DHT22;35493;50.276;9.372;2023-02-18T07:33:24;10.20;91.80
49413;DHT22;35493;50.276;9.372;2023-02-18T07:35:52;10.20;91.60
49413;DHT22;35493;50.276;9.372;2023-02-18T07:38:21;10.20;91.40
49413;DHT22;35493;50.276;9.372;2023-02-18T07:40:50;10.20;91.30
49413;DHT22;35493;50.276;9.372;2023-02-18T07:43:18;10.20;91.30
49413;DHT22;35493;50.276;9.372;2023-02-18T07:45:45;10.20;91.00
49413;DHT22;35493;50.276;9.372;2023-02-18T07:48:12;10.20;91.10
49413;DHT22;35493;50.276;9.372;2023-02-18T07:50:39;10.20;90.70
49413;DHT22;35493;50.276;9.372;2023-02-18T07:53:07;10.20;90.60
49413;DHT22;35493;50.276;9.372;2023-02-18T07:55:36;10.20;90.40
49413;DHT22;35493;50.276;9.372;2023-02-18T07:58:24;10.20;90.20
49413;DHT22;35493;50.276;9.372;2023-02-18T08:00:52;10.20;89.90
49413;DHT22;35493;50.276;9.372;2023-02-18T08:03:20;10.20;89.90
49413;DHT22;35493;50.276;9.372;2023-02-18T08:05:47;10.20;89.60
49413;DHT22;35493;50.276;9.372;2023-02-18T08:08:17;10.20;89.60
49413;DHT22;35493;50.276;9.372;2023-02-18T08:10:47;10.20;89.60
49413;DHT22;35493;50.276;9.372;2023-02-18T08:13:14;10.20;89.10
49413;DHT22;35493;50.276;9.372;2023-02-18T08:15:41;10.20;89.00
49413;DHT22;35493;50.276;9.372;2023-02-18T08:18:15;10.20;88.70
49413;DHT22;35493;50.276;9.372;2023-02-18T08:20:42;10.20;88.50
49413;DHT22;35493;50.276;9.372;2023-02-18T08:23:09;10.20;88.50
49413;DHT22;35493;50.276;9.372;2023-02-18T08:25:36;10.20;88.40
49413;DHT22;35493;50.276;9.372;2023-02-18T08:28:05;10.20;88.20
49413;DHT22;35493;50.276;9.372;2023-02-18T08:30:32;10.30;87.90
49413;DHT22;35493;50.276;9.372;2023-02-18T08:32:59;10.20;88.10
49413;DHT22;35493;50.276;9.372;2023-02-18T08:35:28;10.20;87.90
49413;DHT22;35493;50.276;9.372;2023-02-18T08:37:55;10.30;88.10
49413;DHT22;35493;50.276;9.372;2023-02-18T08:40:22;10.30;87.50
49413;DHT22;35493;50.276;9.372;2023-02-18T08:42:49;10.30;87.50
49413;DHT22;35493;50.276;9.372;2023-02-18T08:45:17;10.30;87.90
49413;DHT22;35493;50.276;9.372;2023-02-18T08:47:44;10.30;87.50
49413;DHT22;35493;50.276;9.372;2023-02-18T08:50:11;10.30;87.20
49413;DHT22;35493;50.276;9.372;2023-02-18T08:52:38;10.30;87.40
49413;DHT22;35493;50.276;9.372;2023-02-18T08:55:06;10.30;87.10
49413;DHT22;35493;50.276;9.372;2023-02-18T08:57:33;10.30;86.70
49413;DHT22;35493;50.276;9.372;2023-02-18T09:00:00;10.40;86.80
49413;DHT22;35493;50.276;9.372;2023-02-18T09:02:28;10.40;86.60
49413;DHT22;35493;50.276;9.372;2023-02-18T09:04:55;10.40;85.70
49413;DHT22;35493;50.276;9.372;2023-02-18T09:07:22;10.50;85.90
49413;DHT22;35493;50.276;9.372;2023-02-18T09:09:48;10.50;85.60
49413;DHT22;35493;50.276;9.372;2023-02-18T09:12:15;10.50;85.60
49413;DHT22;35493;50.276;9.372;2023-02-18T09:14:42;10.50;85.30
49413;DHT22;35493;50.276;9.372;2023-02-18T09:17:09;10.50;85.10
49413;DHT22;35493;50.276;9.372;2023-02-18T09:19:37;10.50;85.20
49413;DHT22;35493;50.276;9.372;2023-02-18T09:22:04;10.50;85.10
49413;DHT22;35493;50.276;9.372;2023-02-18T09:24:36;10.50;84.80
49413;DHT22;35493;50.276;9.372;2023-02-18T09:27:03;10.60;84.40
49413;DHT22;35493;50.276;9.372;2023-02-18T09:29:31;10.60;84.40
49413;DHT22;35493;50.276;9.372;2023-02-18T09:31:59;10.60;83.80
49413;DHT22;35493;50.276;9.372;2023-02-18T09:34:26;10.60;84.10
49413;DHT22;35493;50.276;9.372;2023-02-18T09:36:55;10.60;83.80
49413;DHT22;35493;50.276;9.372;2023-02-18T09:39:22;10.60;83.40
49413;DHT22;35493;50.276;9.372;2023-02-18T09:41:51;10.60;83.30
49413;DHT22;35493;50.276;9.372;2023-02-18T09:44:20;10.70;83.10
49413;DHT22;35493;50.276;9.372;2023-02-18T09:46:51;10.70;83.20
49413;DHT22;35493;50.276;9.372;2023-02-18T09:49:23;10.70;83.40
49413;DHT22;35493;50.276;9.372;2023-02-18T09:51:51;10.70;82.70
49413;DHT22;35493;50.276;9.372;2023-02-18T09:54:20;10.70;82.90
49413;DHT22;35493;50.276;9.372;2023-02-18T09:56:48;10.80;82.90
49413;DHT22;35493;50.276;9.372;2023-02-18T09:59:17;10.70;82.80
49413;DHT22;35493;50.276;9.372;2023-02-18T10:01:46;10.70;82.90
49413;DHT22;35493;50.276;9.372;2023-02-18T10:04:16;10.70;82.80
49413;DHT22;35493;50.276;9.372;2023-02-18T10:06:50;10.70;82.70
49413;DHT22;35493;50.276;9.372;2023-02-18T10:09:20;10.70;82.70
49413;DHT22;35493;50.276;9.372;2023-02-18T10:11:51;10.70;82.20
49413;DHT22;35493;50.276;9.372;2023-02-18T10:14:20;10.70;82.70
49413;DHT22;35493;50.276;9.372;2023-02-18T10:16:49;10.70;82.40
49413;DHT22;35493;50.276;9.372;2023-02-18T10:19:23;10.70;82.50
49413;DHT22;35493;50.276;9.372;2023-02-18T10:21:52;10.70;82.50
49413;DHT22;35493;50.276;9.372;2023-02-18T10:24:28;10.60;82.30
49413;DHT22;35493;50.276;9.372;2023-02-18T10:26:56;10.70;82.30
49413;DHT22;35493;50.276;9.372;2023-02-18T10:29:24;10.70;82.50
49413;DHT22;35493;50.276;9.372;2023-02-18T10:31:54;10.70;82.40
49413;DHT22;35493;50.276;9.372;2023-02-18T10:34:38;10.70;82.10
49413;DHT22;35493;50.276;9.372;2023-02-18T10:37:17;10.70;81.70
49413;DHT22;35493;50.276;9.372;2023-02-18T10:39:59;10.70;81.90
49413;DHT22;35493;50.276;9.372;2023-02-18T10:42:34;10.60;82.50
49413;DHT22;35493;50.276;9.372;2023-02-18T10:45:07;10.60;82.20
49413;DHT22;35493;50.276;9.372;2023-02-18T10:47:44;10.60;82.00
49413;DHT22;35493;50.276;9.372;2023-02-18T10:50:24;10.70;81.90
49413;DHT22;35493;50.276;9.372;2023-02-18T10:52:55;10.60;82.00
49413;DHT22;35493;50.276;9.372;2023-02-18T10:55:36;10.70;82.10
49413;DHT22;35493;50.276;9.372;2023-02-18T10:58:03;10.70;82.30
49413;DHT22;35493;50.276;9.372;2023-02-18T11:00:34;10.70;82.00
49413;DHT22;35493;50.276;9.372;2023-02-18T11:03:14;10.70;82.40
49413;DHT22;35493;50.276;9.372;2023-02-18T11:05:42;10.70;82.30
49413;DHT22;35493;50.276;9.372;2023-02-18T11:08:14;10.70;81.90
49413;DHT22;35493;50.276;9.372;2023-02-18T11:10:45;10.70;82.00
49413;DHT22;35493;50.276;9.372;2023-02-18T11:13:16;10.70;82.10
49413;DHT22;35493;50.276;9.372;2023-02-18T11:15:56;10.70;82.30
49413;DHT22;35493;50.276;9.372;2023-02-18T11:18:37;10.70;82.10
49413;DHT22;35493;50.276;9.372;2023-02-18T11:21:17;10.70;82.10
49413;DHT22;35493;50.276;9.372;2023-02-18T11:23:47;10.70;81.80
49413;DHT22;35493;50.276;9.372;2023-02-18T11:26:16;10.70;82.10
49413;DHT22;35493;50.276;9.372;2023-02-18T11:28:47;10.70;82.00
49413;DHT22;35493;50.276;9.372;2023-02-18T11:31:20;10.70;82.00
49413;DHT22;35493;50.276;9.372;2023-02-18T11:33:50;10.80;81.70
49413;DHT22;35493;50.276;9.372;2023-02-18T11:36:22;10.80;82.10
49413;DHT22;35493;50.276;9.372;2023-02-18T11:38:52;10.80;81.80
49413;DHT22;35493;50.276;9.372;2023-02-18T11:41:29;10.80;81.40
49413;DHT22;35493;50.276;9.372;2023-02-18T11:43:58;10.80;81.50
49413;DHT22;35493;50.276;9.372;2023-02-18T11:46:27;10.80;81.40
49413;DHT22;35493;50.276;9.372;2023-02-18T11:48:55;10.80;81.40
49413;DHT22;35493;50.276;9.372;2023-02-18T11:51:25;10.80;81.40
49413;DHT22;35493;50.276;9.372;2023-02-18T11:53:58;10.80;81.50
49413;DHT22;35493;50.276;9.372;2023-02-18T11:56:29;10.90;81.50
49413;DHT22;35493;50.276;9.372;2023-02-18T11:58:57;10.90;81.50
49413;DHT22;35493;50.276;9.372;2023-02-18T12:01:35;10.90;81.40
49413;DHT22;35493;50.276;9.372;2023-02-18T12:04:09;10.90;81.40
49413;DHT22;35493;50.276;9.372;2023-02-18T12:06:40;10.90;81.70
49413;DHT22;35493;50.276;9.372;2023-02-18T12:09:23;10.90;81.40
49413;DHT22;35493;50.276;9.372;2023-02-18T12:12:00;11.00;81.40
49413;DHT22;35493;50.276;9.372;2023-02-18T12:14:28;11.00;81.40
49413;DHT22;35493;50.276;9.372;2023-02-18T12:17:20;11.00;81.30
49413;DHT22;35493;50.276;9.372;2023-02-18T12:23:00;11.00;81.50
49413;DHT22;35493;50.276;9.372;2023-02-18T12:25:38;11.10;81.10
49413;DHT22;35493;50.276;9.372;2023-02-18T12:28:19;11.10;81.00
49413;DHT22;35493;50.276;9.372;2023-02-18T12:31:03;11.10;80.90
49413;DHT22;35493;50.276;9.372;2023-02-18T12:33:41;11.00;80.40
49413;DHT22;35493;50.276;9.372;2023-02-18T12:36:18;11.00;80.80
49413;DHT22;35493;50.276;9.372;2023-02-18T12:38:54;11.00;80.80
49413;DHT22;35493;50.276;9.372;2023-02-18T12:41:35;11.00;80.80
49413;DHT22;35493;50.276;9.372;2023-02-18T12:44:14;11.00;80.40
49413;DHT22;35493;50.276;9.372;2023-02-18T12:46:59;11.00;80.80
49413;DHT22;35493;50.276;9.372;2023-02-18T12:49:48;11.00;80.80
49413;DHT22;35493;50.276;9.372;2023-02-18T12:52:26;11.00;80.40
49413;DHT22;35493;50.276;9.372;2023-02-18T12:58:07;11.00;80.30
49413;DHT22;35493;50.276;9.372;2023-02-18T13:00:54;11.00;80.20
49413;DHT22;35493;50.276;9.372;2023-02-18T13:03:54;11.10;80.60
49413;DHT22;35493;50.276;9.372;2023-02-18T13:06:41;11.00;81.20
49413;DHT22;35493;50.276;9.372;2023-02-18T13:09:19;11.00;81.60
49413;DHT22;35493;50.276;9.372;2023-02-18T13:11:58;11.00;82.00
49413;DHT22;35493;50.276;9.372;2023-02-18T13:14:31;11.00;82.30
49413;DHT22;35493;50.276;9.372;2023-02-18T13:17:04;11.00;82.50
49413;DHT22;35493;50.276;9.372;2023-02-18T13:19:41;11.00;82.60
49413;DHT22;35493;50.276;9.372;2023-02-18T13:22:14;11.00;82.60
49413;DHT22;35493;50.276;9.372;2023-02-18T13:24:43;11.00;82.70
49413;DHT22;35493;50.276;9.372;2023-02-18T13:27:15;11.00;82.60
49413;DHT22;35493;50.276;9.372;2023-02-18T13:29:48;11.00;82.70
49413;DHT22;35493;50.276;9.372;2023-02-18T13:32:22;10.90;82.70
49413;DHT22;35493;50.276;9.372;2023-02-18T13:34:53;10.90;82.20
49413;DHT22;35493;50.276;9.372;2023-02-18T13:37:27;10.90;81.60
49413;DHT22;35493;50.276;9.372;2023-02-18T13:39:58;11.00;81.70
49413;DHT22;35493;50.276;9.372;2023-02-18T13:42:36;11.00;82.00
49413;DHT22;35493;50.276;9.372;2023-02-18T13:45:25;11.00;81.90
49413;DHT22;35493;50.276;9.372;2023-02-18T13:47:55;11.00;81.90
49413;DHT22;35493;50.276;9.372;2023-02-18T13:50:27;11.00;81.80
49413;DHT22;35493;50.276;9.372;2023-02-18T13:53:19;11.00;81.80
49413;DHT22;35493;50.276;9.372;2023-02-18T13:55:54;11.00;81.70
49413;DHT22;35493;50.276;9.372;2023-02-18T13:58:24;11.00;81.90
49413;DHT22;35493;50.276;9.372;2023-02-18T14:01:00;11.10;82.20
49413;DHT22;35493;50.276;9.372;2023-02-18T14:03:49;11.00;82.10
49413;DHT22;35493;50.276;9.372;2023-02-18T14:06:19;11.00;82.00
49413;DHT22;35493;50.276;9.372;2023-02-18T14:08:47;11.00;82.00
49413;DHT22;35493;50.276;9.372;2023-02-18T14:11:34;11.10;82.00
49413;DHT22;35493;50.276;9.372;2023-02-18T14:14:35;11.10;82.00
49413;DHT22;35493;50.276;9.372;2023-02-18T14:20:32;11.10;82.40
49413;DHT22;35493;50.276;9.372;2023-02-18T14:25:57;11.10;82.60
49413;DHT22;35493;50.276;9.372;2023-02-18T14:28:38;11.10;82.70
49413;DHT22;35493;50.276;9.372;2023-02-18T14:31:24;11.10;82.60
49413;DHT22;35493;50.276;9.372;2023-02-18T14:36:56;11.10;82.60
49413;DHT22;35493;50.276;9.372;2023-02-18T14:39:34;11.10;82.80
49413;DHT22;35493;50.276;9.372;2023-02-18T14:42:10;11.10;82.80
49413;DHT22;35493;50.276;9.372;2023-02-18T14:44:54;11.10;82.70
49413;DHT22;35493;50.276;9.372;2023-02-18T14:47:39;11.10;82.60
49413;DHT22;35493;50.276;9.372;2023-02-18T14:50:12;11.10;82.70
49413;DHT22;35493;50.276;9.372;2023-02-18T14:52:44;11.10;82.80
49413;DHT22;35493;50.276;9.372;2023-02-18T14:55:18;11.10;82.60
49413;DHT22;35493;50.276;9.372;2023-02-18T14:57:49;11.10;82.70
49413;DHT22;35493;50.276;9.372;2023-02-18T15:00:18;11.10;82.80
49413;DHT22;35493;50.276;9.372;2023-02-18T15:02:48;11.10;82.70
49413;DHT22;35493;50.276;9.372;2023-02-18T15:05:17;11.10;82.70
49413;DHT22;35493;50.276;9.372;2023-02-18T15:07:57;11.10;82.90
49413;DHT22;35493;50.276;9.372;2023-02-18T15:10:35;11.10;83.00
49413;DHT22;35493;50.276;9.372;2023-02-18T15:13:04;11.10;83.00
49413;DHT22;35493;50.276;9.372;2023-02-18T15:15:33;11.10;83.00
49413;DHT22;35493;50.276;9.372;2023-02-18T15:18:02;11.00;83.10
49413;DHT22;35493;50.276;9.372;2023-02-18T15:20:32;11.10;83.20
49413;DHT22;35493;50.276;9.372;2023-02-18T15:23:10;11.00;83.40
49413;DHT22;35493;50.276;9.372;2023-02-18T15:25:47;11.00;83.40
49413;DHT22;35493;50.276;9.372;2023-02-18T15:28:21;11.00;83.60
49413;DHT22;35493;50.276;9.372;2023-02-18T15:30:48;11.00;83.60
49413;DHT22;35493;50.276;9.372;2023-02-18T15:33:17;11.00;83.80
49413;DHT22;35493;50.276;9.372;2023-02-18T15:35:45;11.00;83.90
49413;DHT22;35493;50.276;9.372;2023-02-18T15:38:15;11.00;83.90
49413;DHT22;35493;50.276;9.372;2023-02-18T15:40:43;10.90;84.00
49413;DHT22;35493;50.276;9.372;2023-02-18T15:43:15;10.90;84.10
49413;DHT22;35493;50.276;9.372;2023-02-18T15:45:46;10.90;84.20
49413;DHT22;35493;50.276;9.372;2023-02-18T15:48:21;10.90;84.40
49413;DHT22;35493;50.276;9.372;2023-02-18T15:50:52;10.90;84.50
49413;DHT22;35493;50.276;9.372;2023-02-18T15:53:22;10.90;84.50
49413;DHT22;35493;50.276;9.372;2023-02-18T15:55:53;10.90;84.50
49413;DHT22;35493;50.276;9.372;2023-02-18T15:58:23;10.90;84.60
49413;DHT22;35493;50.276;9.372;2023-02-18T16:00:55;10.90;84.50
49413;DHT22;35493;50.276;9.372;2023-02-18T16:03:25;10.90;84.60
49413;DHT22;35493;50.276;9.372;2023-02-18T16:06:11;10.90;84.80
49413;DHT22;35493;50.276;9.372;2023-02-18T16:08:57;10.80;84.80
49413;DHT22;35493;50.276;9.372;2023-02-18T16:11:27;10.70;84.80
49413;DHT22;35493;50.276;9.372;2023-02-18T16:13:55;10.80;85.00
49413;DHT22;35493;50.276;9.372;2023-02-18T16:16:23;10.80;84.90